createdAt,value
2019-06-07T00:02:18.832Z,92347.25
2019-06-07T00:04:48.838Z,92340.50
2019-06-07T00:07:21.822Z,92352.05
2019-06-07T00:09:49.600Z,92344.55
2019-06-07T00:12:21.586Z,92350.94
2019-06-07T00:14:49.961Z,92344.55
2019-06-07T00:17:20.294Z,92347.13
2019-06-07T00:19:50.446Z,92344.14
2019-06-07T00:22:32.240Z,92341.85
2019-06-07T00:24:52.196Z,92339.23
2019-06-07T00:27:22.660Z,92341.53
2019-06-07T00:29:52.229Z,92340.94
2019-06-07T00:32:22.262Z,92341.99
2019-06-07T00:34:52.013Z,92341.02
2019-06-07T00:37:25.238Z,92340.72
2019-06-07T00:40:12.936Z,92342.29
2019-06-07T00:42:24.284Z,92340.72
2019-06-07T00:44:54.215Z,92343.97
2019-06-07T00:47:25.541Z,92337.07
2019-06-07T00:49:54.531Z,92340.58
2019-06-07T00:53:11.657Z,92343.20
2019-06-07T00:54:55.379Z,92344.03
2019-06-07T00:57:24.734Z,92342.05
2019-06-07T00:59:54.126Z,92344.30
2019-06-07T01:02:28.245Z,92342.80
2019-06-07T01:04:54.956Z,92348.66
2019-06-07T01:07:24.707Z,92340.48
2019-06-07T01:09:54.117Z,92344.97
2019-06-07T01:12:26.877Z,92336.69
2019-06-07T01:14:55.046Z,92333.84
2019-06-07T01:17:39.215Z,92326.73
2019-06-07T01:19:56.509Z,92323.27
2019-06-07T01:22:28.882Z,92320.23
2019-06-07T01:24:56.916Z,92329.34
2019-06-07T01:27:26.364Z,92325.37
2019-06-07T01:29:55.860Z,92325.23
2019-06-07T01:32:27.170Z,92320.89
2019-06-07T01:34:56.612Z,92318.64
2019-06-07T01:37:27.863Z,92321.62
2019-06-07T01:39:57.437Z,92322.99
2019-06-07T01:42:29.472Z,92317.66
2019-06-07T01:44:57.817Z,92319.36
2019-06-07T01:47:29.361Z,92321.27
2019-06-07T01:49:58.203Z,92318.50
2019-06-07T01:52:29.287Z,92322.62
2019-06-07T01:54:59.206Z,92328.90
2019-06-07T01:57:44.779Z,92327.38
2019-06-07T02:00:00.086Z,92326.15
2019-06-07T02:02:31.639Z,92335.95
2019-06-07T02:05:00.472Z,92333.40
2019-06-07T02:07:32.808Z,92332.51
2019-06-07T02:10:00.873Z,92343.32
2019-06-07T02:12:40.333Z,92339.61
2019-06-07T02:15:01.777Z,92340.64
2019-06-07T02:17:33.177Z,92339.73
2019-06-07T02:20:02.637Z,92340.09
2019-06-07T02:22:32.637Z,92345.30
2019-06-07T02:25:37.355Z,92340.45
2019-06-07T02:27:33.254Z,92336.23
2019-06-07T02:30:35.241Z,92337.23
2019-06-07T02:32:36.698Z,92336.69
2019-06-07T02:35:07.239Z,92344.44
2019-06-07T02:37:37.543Z,92349.89
2019-06-07T02:40:07.832Z,92347.29
2019-06-07T02:42:42.247Z,92358.12
2019-06-07T02:45:10.845Z,92361.04
2019-06-07T02:47:45.118Z,92374.59
2019-06-07T02:50:14.849Z,92382.11
2019-06-07T02:52:44.294Z,92376.88
2019-06-07T02:55:13.689Z,92378.89
2019-06-07T02:57:43.356Z,92399.64
2019-06-07T03:00:47.563Z,92394.13
2019-06-07T03:02:45.588Z,92390.55
2019-06-07T03:05:15.038Z,92389.11
2019-06-07T03:07:45.948Z,92393.10
2019-06-07T03:10:15.308Z,92397.81
2019-06-07T03:12:46.091Z,92405.24
2019-06-07T03:15:32.232Z,92407.19
2019-06-07T03:18:05.019Z,92408.94
2019-06-07T03:20:36.746Z,92417.22
2019-06-07T03:23:06.195Z,92419.70
2019-06-07T03:25:37.742Z,92418.30
2019-06-07T03:28:07.969Z,92421.05
2019-06-07T03:30:57.185Z,92418.20
2019-06-07T03:33:08.334Z,92419.55
2019-06-07T03:35:40.328Z,92418.36
2019-06-07T03:38:08.688Z,92422.72
2019-06-07T03:40:40.015Z,92423.12
2019-06-07T03:43:09.125Z,92422.73
2019-06-07T03:45:41.509Z,92427.67
2019-06-07T03:48:10.448Z,92429.47
2019-06-07T03:50:42.407Z,92430.15
2019-06-07T03:53:10.814Z,92434.28
2019-06-07T03:55:41.445Z,92436.25
2019-06-07T03:58:31.336Z,92437.61
2019-06-07T04:00:43.435Z,92442.83
2019-06-07T04:03:32.418Z,92439.37
2019-06-07T04:05:44.602Z,92443.11
2019-06-07T04:08:13.953Z,92453.51
2019-06-07T04:10:58.600Z,92448.58
2019-06-07T04:13:14.592Z,92452.90
2019-06-07T04:15:43.951Z,92456.62
2019-06-07T04:18:13.427Z,92453.48
2019-06-07T04:20:42.769Z,92452.41
2019-06-07T04:23:27.621Z,92454.05
2019-06-07T04:25:43.256Z,92453.75
2019-06-07T04:28:12.641Z,92451.12
2019-06-07T04:30:42.976Z,92459.23
2019-06-07T04:33:12.796Z,92456.73
2019-06-07T04:35:43.350Z,92459.48
2019-06-07T04:38:14.120Z,92453.58
2019-06-07T04:40:44.532Z,92457.84
2019-06-07T04:43:14.050Z,92456.70
2019-06-07T04:45:50.928Z,92455.00
2019-06-07T04:48:14.387Z,92452.27
2019-06-07T04:50:44.293Z,92453.30
2019-06-07T04:53:13.989Z,92456.55
2019-06-07T04:55:43.436Z,92461.16
2019-06-07T04:58:12.785Z,92458.89
2019-06-07T05:00:58.757Z,92467.84
2019-06-07T05:03:13.174Z,92460.65
2019-06-07T05:05:43.884Z,92464.64
2019-06-07T05:08:27.530Z,92466.06
2019-06-07T05:10:44.593Z,92465.86
2019-06-07T05:13:13.906Z,92472.19
2019-06-07T05:15:43.327Z,92471.88
2019-06-07T05:18:12.717Z,92470.49
2019-06-07T05:20:44.544Z,92475.99
2019-06-07T05:23:59.530Z,92476.77
2019-06-07T05:25:44.922Z,92475.91
2019-06-07T05:28:14.471Z,92473.61
2019-06-07T05:31:03.686Z,92477.53
2019-06-07T05:33:14.835Z,92481.48
2019-06-07T05:35:44.212Z,92481.71
2019-06-07T05:38:13.563Z,92474.60
2019-06-07T05:40:48.603Z,92480.50
2019-06-07T05:43:22.462Z,92483.94
2019-06-07T05:45:52.167Z,92474.09
2019-06-07T05:48:21.525Z,92481.73
2019-06-07T05:50:56.755Z,92492.94
2019-06-07T05:53:22.260Z,92489.73
2019-06-07T05:55:52.377Z,92486.66
2019-06-07T05:58:21.715Z,92490.91
2019-06-07T06:00:51.483Z,92486.41
2019-06-07T06:03:21.304Z,92486.81
2019-06-07T06:05:55.358Z,92494.28
2019-06-07T06:08:21.762Z,92494.00
2019-06-07T06:10:51.098Z,92499.73
2019-06-07T06:13:20.440Z,92496.61
2019-06-07T06:16:00.427Z,92501.92
2019-06-07T06:18:21.317Z,92495.55
2019-06-07T06:21:15.596Z,92497.63
2019-06-07T06:23:24.610Z,92498.09
2019-06-07T06:25:57.648Z,92496.83
2019-06-07T06:28:24.988Z,92503.11
2019-06-07T06:30:54.418Z,92504.83
2019-06-07T06:33:33.465Z,92503.11
2019-06-07T06:35:55.084Z,92508.23
2019-06-07T06:38:24.553Z,92507.67
2019-06-07T06:41:13.949Z,92504.66
2019-06-07T06:43:24.844Z,92505.00
2019-06-07T06:45:54.537Z,92499.44
2019-06-07T06:48:23.872Z,92501.99
2019-06-07T06:50:53.230Z,92500.95
2019-06-07T06:53:22.595Z,92499.53
2019-06-07T06:55:51.977Z,92495.67
2019-06-07T06:58:21.295Z,92484.18
2019-06-07T07:01:04.855Z,92497.23
2019-06-07T07:03:57.607Z,92492.38
2019-06-07T07:05:55.140Z,92487.02
2019-06-07T07:08:25.234Z,92491.49
2019-06-07T07:10:55.136Z,92493.70
2019-06-07T07:13:25.501Z,92486.12
2019-06-07T07:15:57.931Z,92482.43
2019-06-07T07:18:25.908Z,92473.91
2019-06-07T07:20:57.443Z,92482.08
2019-06-07T07:23:26.834Z,92478.13
2019-06-07T07:25:59.449Z,92476.14
2019-06-07T07:28:27.660Z,92479.80
2019-06-07T07:30:57.494Z,92482.39
2019-06-07T07:34:20.118Z,92486.94
2019-06-07T07:38:29.890Z,92483.00
2019-06-07T07:41:14.177Z,92480.72
2019-06-07T07:43:33.409Z,92488.68
2019-06-07T07:46:06.083Z,92497.33
2019-06-07T07:48:33.886Z,92484.09
2019-06-07T07:51:12.104Z,92483.23
2019-06-07T07:53:52.187Z,92482.00
2019-06-07T07:56:12.559Z,92486.56
2019-06-07T07:58:42.001Z,92487.98
2019-06-07T08:01:11.509Z,92490.43
2019-06-07T08:03:41.085Z,92490.22
2019-06-07T08:06:10.462Z,92483.94
2019-06-07T08:08:39.828Z,92482.47
2019-06-07T08:11:09.146Z,92478.31
2019-06-07T08:13:38.520Z,92474.03
2019-06-07T08:16:13.745Z,92467.83
2019-06-07T08:18:38.921Z,92474.82
2019-06-07T08:21:23.100Z,92470.25
2019-06-07T08:23:39.935Z,92469.45
2019-06-07T08:26:09.283Z,92474.73
2019-06-07T08:28:38.640Z,92473.00
2019-06-07T08:31:08.495Z,92467.66
2019-06-07T08:33:37.873Z,92463.03
2019-06-07T08:36:21.859Z,92469.34
2019-06-07T08:38:47.433Z,92468.33
2019-06-07T08:41:12.033Z,92468.81
2019-06-07T08:43:40.344Z,92469.75
2019-06-07T08:46:09.673Z,92466.74
2019-06-07T08:48:39.030Z,92460.69
2019-06-07T08:51:08.820Z,92464.22
2019-06-07T08:53:38.556Z,92459.53
2019-06-07T08:56:11.095Z,92460.77
2019-06-07T08:58:39.273Z,92454.70
2019-06-07T09:01:09.324Z,92458.53
2019-06-07T09:03:39.442Z,92455.21
2019-06-07T09:06:53.814Z,92451.22
2019-06-07T09:08:40.082Z,92451.06
2019-06-07T09:11:11.397Z,92448.53
2019-06-07T09:13:40.501Z,92450.04
2019-06-07T09:16:09.851Z,92448.50
2019-06-07T09:18:43.799Z,92448.89
2019-06-07T09:21:11.232Z,92441.72
2019-06-07T09:23:40.565Z,92438.20
2019-06-07T09:26:16.596Z,92436.62
2019-06-07T09:28:42.318Z,92442.57
2019-06-07T09:31:12.804Z,92444.78
2019-06-07T09:33:42.508Z,92444.75
2019-06-07T09:36:13.388Z,92454.97
2019-06-07T09:38:43.159Z,92447.87
2019-06-07T09:41:12.502Z,92450.61
2019-06-07T09:46:16.128Z,92449.58
2019-06-07T09:49:10.492Z,92440.44
2019-06-07T09:51:19.603Z,92441.27
2019-06-07T09:53:47.326Z,92447.41
2019-06-07T09:56:16.923Z,92448.33
2019-06-07T09:58:52.779Z,92448.17
2019-06-07T10:01:17.401Z,92442.13
2019-06-07T10:03:46.741Z,92438.75
2019-06-07T10:06:16.133Z,92431.28
2019-06-07T10:11:16.473Z,92432.56
2019-06-07T10:13:46.537Z,92434.88
2019-06-07T10:16:16.012Z,92435.42
2019-06-07T10:18:45.358Z,92445.33
2019-06-07T10:21:15.689Z,92440.08
2019-06-07T10:23:45.143Z,92434.38
2019-06-07T10:26:15.764Z,92440.09
2019-06-07T10:28:47.880Z,92434.43
2019-06-07T10:31:17.234Z,92433.42
2019-06-07T10:33:46.564Z,92431.28
2019-06-07T10:36:15.997Z,92436.81
2019-06-07T10:38:45.576Z,92433.80
2019-06-07T10:41:17.970Z,92431.87
2019-06-07T10:43:47.356Z,92433.92
2019-06-07T10:46:17.092Z,92435.71
2019-06-07T10:48:46.553Z,92429.21
2019-06-07T10:51:15.998Z,92432.94
2019-06-07T10:53:45.433Z,92430.93
2019-06-07T10:56:14.803Z,92427.81
2019-06-07T10:58:44.357Z,92434.43
2019-06-07T11:01:14.443Z,92428.50
2019-06-07T11:03:44.130Z,92427.45
2019-06-07T11:06:14.246Z,92418.42
2019-06-07T11:08:44.765Z,92418.50
2019-06-07T11:11:17.630Z,92414.47
2019-06-07T11:13:52.363Z,92411.70
2019-06-07T11:16:21.164Z,92412.50
2019-06-07T11:18:58.720Z,92411.45
2019-06-07T11:21:28.625Z,92406.97
2019-06-07T11:23:58.034Z,92402.95
2019-06-07T11:26:27.698Z,92405.06
2019-06-07T11:28:57.249Z,92396.36
2019-06-07T11:31:26.585Z,92395.70
2019-06-07T11:33:56.059Z,92396.55
2019-06-07T11:36:28.426Z,92397.75
2019-06-07T11:38:58.530Z,92393.72
2019-06-07T11:41:28.519Z,92401.78
2019-06-07T11:43:58.054Z,92392.78
2019-06-07T11:46:28.731Z,92390.81
2019-06-07T11:48:58.131Z,92400.94
2019-06-07T11:51:27.689Z,92390.02
2019-06-07T11:53:57.141Z,92394.08
2019-06-07T11:56:26.520Z,92384.31
2019-06-07T11:58:55.904Z,92386.01
2019-06-07T12:01:27.497Z,92382.69
2019-06-07T12:03:58.852Z,92385.99
2019-06-07T12:06:28.742Z,92380.91
2019-06-07T12:08:58.743Z,92382.48
2019-06-07T12:11:28.549Z,92369.31
2019-06-07T12:13:58.239Z,92373.16
2019-06-07T12:16:27.569Z,92357.52
2019-06-07T12:18:57.476Z,92352.02
2019-06-07T12:21:26.846Z,92355.59
2019-06-07T12:23:56.194Z,92361.19
2019-06-07T12:26:27.229Z,92371.61
2019-06-07T12:28:56.743Z,92372.34
2019-06-07T12:31:26.514Z,92385.16
2019-06-07T12:33:55.947Z,92387.01
2019-06-07T12:36:25.294Z,92396.95
2019-06-07T12:38:54.616Z,92395.19
2019-06-07T12:41:23.996Z,92395.08
2019-06-07T12:43:53.322Z,92399.03
2019-06-07T12:46:27.984Z,92402.16
2019-06-07T12:48:53.672Z,92398.68
2019-06-07T12:51:23.479Z,92405.07
2019-06-07T12:53:52.877Z,92407.28
2019-06-07T12:56:22.301Z,92411.56
2019-06-07T12:58:53.156Z,92410.31
2019-06-07T13:01:23.421Z,92418.83
2019-06-07T13:03:53.873Z,92426.64
2019-06-07T13:06:23.703Z,92420.38
2019-06-07T13:08:54.682Z,92429.84
2019-06-07T13:11:28.279Z,92434.73
2019-06-07T13:13:55.139Z,92429.01
2019-06-07T13:16:24.475Z,92428.68
2019-06-07T13:18:53.859Z,92428.02
2019-06-07T13:21:24.647Z,92422.23
2019-06-07T13:23:54.505Z,92420.16
2019-06-07T13:26:25.065Z,92419.09
2019-06-07T13:28:55.511Z,92412.86
2019-06-07T13:31:25.224Z,92421.27
2019-06-07T13:33:59.043Z,92417.25
2019-06-07T13:36:28.529Z,92416.81
2019-06-07T13:38:57.964Z,92411.58
2019-06-07T13:41:40.273Z,92414.86
2019-06-07T13:43:58.656Z,92412.20
2019-06-07T13:46:27.984Z,92409.54
2019-06-07T13:48:57.382Z,92412.97
2019-06-07T13:51:28.437Z,92409.31
2019-06-07T13:53:57.673Z,92412.02
2019-06-07T13:56:28.340Z,92406.08
2019-06-07T13:58:57.826Z,92399.88
2019-06-07T14:01:28.888Z,92399.94
2019-06-07T14:03:59.057Z,92402.13
2019-06-07T14:06:30.269Z,92402.23
2019-06-07T14:09:00.039Z,92404.29
2019-06-07T14:11:31.561Z,92398.71
2019-06-07T14:14:00.415Z,92403.55
2019-06-07T14:16:30.443Z,92393.09
2019-06-07T14:19:00.095Z,92401.98
2019-06-07T14:21:30.768Z,92396.94
2019-06-07T14:24:00.363Z,92406.97
2019-06-07T14:26:29.889Z,92405.66
2019-06-07T14:28:59.287Z,92418.14
2019-06-07T14:31:36.118Z,92412.54
2019-06-07T14:34:05.496Z,92416.80
2019-06-07T14:36:35.315Z,92412.59
2019-06-07T14:39:05.790Z,92417.45
2019-06-07T14:41:35.120Z,92415.41
2019-06-07T14:44:05.048Z,92416.75
2019-06-07T14:46:34.535Z,92416.11
2019-06-07T14:49:03.948Z,92418.88
2019-06-07T14:51:33.815Z,92415.14
2019-06-07T14:54:05.078Z,92423.75
2019-06-07T14:56:35.320Z,92423.60
2019-06-07T14:59:05.210Z,92420.97
2019-06-07T15:01:35.606Z,92424.41
2019-06-07T15:04:05.296Z,92429.31
2019-06-07T15:06:34.972Z,92424.47
2019-06-07T15:09:06.293Z,92434.57
2019-06-07T15:11:35.904Z,92427.92
2019-06-07T15:14:05.800Z,92423.55
2019-06-07T15:16:35.831Z,92421.82
2019-06-07T15:19:05.319Z,92420.78
2019-06-07T15:21:35.086Z,92423.59
2019-06-07T15:24:05.243Z,92419.63
2019-06-07T15:26:34.659Z,92427.89
2019-06-07T15:29:04.037Z,92424.50
2019-06-07T15:31:34.685Z,92426.47
2019-06-07T15:34:05.455Z,92426.10
2019-06-07T15:36:36.328Z,92425.09
2019-06-07T15:39:07.339Z,92428.98
2019-06-07T15:41:37.440Z,92424.98
2019-06-07T15:44:07.290Z,92422.05
2019-06-07T15:46:37.952Z,92421.88
2019-06-07T15:49:08.303Z,92417.35
2019-06-07T15:51:41.095Z,92419.03
2019-06-07T15:54:10.767Z,92420.86
2019-06-07T15:56:41.220Z,92426.97
2019-06-07T15:59:11.049Z,92412.38
2019-06-07T16:01:41.927Z,92406.84
2019-06-07T16:04:11.480Z,92416.87
2019-06-07T16:06:43.161Z,92413.52
2019-06-07T16:09:11.898Z,92419.60
2019-06-07T16:11:41.753Z,92427.13
2019-06-07T16:14:12.457Z,92421.70
2019-06-07T16:16:43.261Z,92425.52
2019-06-07T16:19:13.157Z,92433.45
2019-06-07T16:21:43.707Z,92435.00
2019-06-07T16:24:13.379Z,92436.07
2019-06-07T16:26:42.728Z,92440.39
2019-06-07T16:29:12.654Z,92437.80
2019-06-07T16:31:45.153Z,92442.95
2019-06-07T16:34:14.806Z,92441.01
2019-06-07T16:36:44.693Z,92444.67
2019-06-07T16:39:14.061Z,92436.95
2019-06-07T16:41:44.733Z,92437.36
2019-06-07T16:44:14.469Z,92440.21
2019-06-07T16:46:45.078Z,92441.02
2019-06-07T16:49:14.583Z,92441.80
2019-06-07T16:51:45.255Z,92442.94
2019-06-07T16:54:15.028Z,92440.88
2019-06-07T16:56:48.034Z,92440.16
2019-06-07T16:59:16.358Z,92437.77
2019-06-07T17:01:45.684Z,92442.92
2019-06-07T17:04:15.068Z,92434.47
2019-06-07T17:06:46.278Z,92436.41
2019-06-07T17:09:15.367Z,92435.77
2019-06-07T17:11:44.808Z,92439.23
2019-06-07T17:14:20.357Z,92437.83
2019-06-07T17:16:50.280Z,92441.56
2019-06-07T17:19:20.028Z,92441.95
2019-06-07T17:21:49.607Z,92440.09
2019-06-07T17:24:19.237Z,92444.56
2019-06-07T17:26:49.648Z,92439.91
2019-06-07T17:29:19.298Z,92450.77
2019-06-07T17:31:48.717Z,92443.52
2019-06-07T17:34:18.218Z,92446.96
2019-06-07T17:36:48.621Z,92450.38
2019-06-07T17:39:18.092Z,92449.63
2019-06-07T17:42:01.084Z,92445.89
2019-06-07T17:44:19.612Z,92448.39
2019-06-07T17:46:49.930Z,92442.80
2019-06-07T17:49:19.719Z,92447.91
2019-06-07T17:51:50.024Z,92444.51
2019-06-07T17:54:19.464Z,92446.19
2019-06-07T17:56:48.793Z,92446.95
2019-06-07T17:59:18.534Z,92453.42
2019-06-07T18:02:12.724Z,92462.42
2019-06-07T18:04:19.937Z,92468.66
2019-06-07T18:06:51.478Z,92472.30
2019-06-07T18:09:23.088Z,92471.55
2019-06-07T18:11:54.036Z,92471.69
2019-06-07T18:14:23.765Z,92472.05
2019-06-07T18:16:53.096Z,92475.89
2019-06-07T18:19:22.950Z,92474.61
2019-06-07T18:21:55.963Z,92481.19
2019-06-07T18:24:23.752Z,92480.00
2019-06-07T18:26:53.098Z,92484.94
2019-06-07T18:29:23.389Z,92487.47
2019-06-07T18:31:52.907Z,92485.33
2019-06-07T18:34:22.865Z,92488.69
2019-06-07T18:36:53.120Z,92497.56
2019-06-07T18:39:22.655Z,92507.09
2019-06-07T18:41:53.356Z,92508.69
2019-06-07T18:44:22.893Z,92511.26
2019-06-07T18:46:52.302Z,92515.73
2019-06-07T18:49:22.036Z,92521.75
2019-06-07T18:52:10.276Z,92530.45
2019-06-07T18:54:39.627Z,92525.92
2019-06-07T18:57:12.343Z,92528.66
2019-06-07T18:59:40.835Z,92536.36
2019-06-07T19:02:10.329Z,92545.42
2019-06-07T19:04:39.663Z,92546.42
2019-06-07T19:07:09.174Z,92551.41
2019-06-07T19:09:38.574Z,92558.27
2019-06-07T19:12:08.285Z,92560.63
2019-06-07T19:14:37.813Z,92560.14
2019-06-07T19:17:07.525Z,92566.73
2019-06-07T19:19:37.605Z,92570.27
2019-06-07T19:22:08.546Z,92573.99
2019-06-07T19:24:38.701Z,92579.31
2019-06-07T19:27:08.886Z,92581.09
2019-06-07T19:29:38.544Z,92575.94
2019-06-07T19:32:08.855Z,92581.27
2019-06-07T19:34:41.544Z,92578.66
2019-06-07T19:37:13.238Z,92580.61
2019-06-07T19:39:44.289Z,92584.08
2019-06-07T19:42:15.268Z,92586.88
2019-06-07T19:44:54.519Z,92582.53
2019-06-07T19:47:16.729Z,92583.36
2019-06-07T19:49:46.290Z,92591.86
2019-06-07T19:52:16.441Z,92591.24
2019-06-07T19:54:46.008Z,92599.31
2019-06-07T19:57:15.564Z,92594.35
2019-06-07T19:59:45.045Z,92596.80
2019-06-07T20:02:14.576Z,92603.92
2019-06-07T20:04:44.000Z,92602.67
2019-06-07T20:07:13.481Z,92610.03
2019-06-07T20:09:43.262Z,92603.39
2019-06-07T20:12:13.348Z,92603.78
2019-06-07T20:14:43.269Z,92608.63
2019-06-07T20:17:12.956Z,92612.34
2019-06-07T20:19:43.223Z,92603.84
2019-06-07T20:22:13.380Z,92601.28
2019-06-07T20:24:43.759Z,92604.39
2019-06-07T20:27:16.476Z,92604.85
2019-06-07T20:29:45.910Z,92606.34
2019-06-07T20:32:15.320Z,92609.04
2019-06-07T20:34:45.003Z,92601.98
2019-06-07T20:37:15.002Z,92603.87
2019-06-07T20:39:46.495Z,92605.12
2019-06-07T20:42:16.117Z,92607.58
2019-06-07T20:44:45.684Z,92609.63
2019-06-07T20:47:15.633Z,92617.14
2019-06-07T20:49:45.617Z,92610.45
2019-06-07T20:52:15.223Z,92608.58
2019-06-07T20:54:44.557Z,92616.74
2019-06-07T20:57:13.936Z,92611.47
2019-06-07T20:59:43.305Z,92607.56
2019-06-07T21:02:12.673Z,92617.36
2019-06-07T21:04:42.406Z,92618.50
2019-06-07T21:07:11.805Z,92623.14
2019-06-07T21:09:41.209Z,92625.53
2019-06-07T21:12:10.956Z,92620.29
2019-06-07T21:14:40.675Z,92621.61
2019-06-07T21:17:10.323Z,92620.70
2019-06-07T21:19:39.784Z,92620.58
2019-06-07T21:22:09.155Z,92627.05
2019-06-07T21:24:38.648Z,92621.42
2019-06-07T21:27:09.354Z,92626.36
2019-06-07T21:29:39.211Z,92626.88
2019-06-07T21:32:09.659Z,92624.88
2019-06-07T21:34:39.746Z,92622.68
2019-06-07T21:37:09.943Z,92631.40
2019-06-07T21:39:39.693Z,92628.43
2019-06-07T21:42:10.318Z,92625.84
2019-06-07T21:44:39.633Z,92624.94
2019-06-07T21:47:09.014Z,92627.92
2019-06-07T21:49:38.412Z,92636.83
2019-06-07T21:52:08.723Z,92630.30
2019-06-07T21:54:38.310Z,92636.00
2019-06-07T21:57:08.977Z,92636.52
2019-06-07T21:59:38.805Z,92642.18
2019-06-07T22:02:09.459Z,92641.09
2019-06-07T22:04:39.632Z,92646.05
2019-06-07T22:07:09.568Z,92647.22
2019-06-07T22:09:39.211Z,92641.25
2019-06-07T22:12:10.036Z,92641.44
2019-06-07T22:14:39.664Z,92637.61
2019-06-07T22:17:10.271Z,92633.50
2019-06-07T22:19:39.851Z,92631.61
2019-06-07T22:22:09.381Z,92640.08
2019-06-07T22:24:39.387Z,92636.22
2019-06-07T22:27:09.132Z,92630.02
2019-06-07T22:29:38.642Z,92630.48
2019-06-07T22:32:08.870Z,92638.50
2019-06-07T22:34:38.432Z,92633.20
2019-06-07T22:37:09.168Z,92629.27
2019-06-07T22:39:41.496Z,92634.30
2019-06-07T22:42:11.993Z,92635.59
2019-06-07T22:44:43.833Z,92638.69
2019-06-07T22:47:14.066Z,92630.17
2019-06-07T22:49:43.588Z,92633.86
2019-06-07T22:52:15.240Z,92636.70
2019-06-07T22:54:44.909Z,92638.11
2019-06-07T22:57:19.952Z,92641.92
2019-06-07T22:59:49.299Z,92642.38
2019-06-07T23:02:18.890Z,92635.98
2019-06-07T23:04:48.552Z,92635.64
2019-06-07T23:07:19.232Z,92638.87
2019-06-07T23:09:48.840Z,92641.64
2019-06-07T23:12:19.459Z,92641.26
2019-06-07T23:14:49.054Z,92625.66
2019-06-07T23:17:20.592Z,92634.14
2019-06-07T23:19:56.000Z,92624.97
2019-06-07T23:22:25.348Z,92634.03
2019-06-07T23:24:55.495Z,92633.08
2019-06-07T23:27:25.259Z,92636.72
2019-06-07T23:29:54.546Z,92632.94
2019-06-07T23:32:23.884Z,92631.52
2019-06-07T23:34:53.257Z,92628.61
2019-06-07T23:37:22.593Z,92621.14
2019-06-07T23:39:52.305Z,92623.72
2019-06-07T23:42:21.911Z,92625.52
2019-06-07T23:44:52.364Z,92620.75
2019-06-07T23:47:22.423Z,92616.05
2019-06-07T23:49:52.200Z,92611.28
2019-06-07T23:52:22.115Z,92613.34
2019-06-07T23:54:51.682Z,92621.00
2019-06-07T23:57:22.594Z,92621.00
2019-06-07T23:59:52.104Z,92620.45
